Portada
METAR-TAF:

METAR-TAF

Aeroports :

Taiyuan, Xina

latitud: 37-47N, longitud: 112-33E, altitud: 779 m

Observació

L'informe es va fer fa 15 minuts, a les 02:00 UTC
Vent 6 kt del Sud-Oest, variant entre Sud/Sud-Oest i Oest
Temperatura 21°C
Humitat 26%
Pressió 1013 hPa
Visibilitat 10 km o més
sense núvols per sota de 1500 mi sense presència de cumulonimbus.

METAR: ZBYN 170200Z 22003MPS 200V270 CAVOK 21/01 Q1013 NOSIG

Hora: 10:15 (02:15 UTC)

Pronòstic

L'informe es va fer fa 5 hores i 14 minuts, a les 21:01 UTC
Pronòstic vàlid del 17 a les 00 UTC al 17 a les 24 UTC
Vent 8 kt del Oest/Nord-Oest
Visibilitat: 5000 m
calitja

TAF: ZBYN 162101Z 1700/1724 29004MPS 5000 HZ NSC TX27/1707Z TN07/1722Z

Observacions i pronòstics meteorològics de més de 4000 aeroports (METAR i TAF).

Les estacions disponibles són els punts grocs i vermells al mapa.

Posi el ratolí al punt desitjat per veure el nom de l'estació.

Feu clic per veure les observacions i els pronòstics meteorològics.

Per canviar el mapa: feu clic els botons verds amb una creu de color negre per apropar; al botó verd amb un guió per allunyar la imatge; o en les fletxes verdes per a mapes adjacents.


METAR-TAF: